RPA weather

Rolpa Airport
Rolpa, Rapti, Nepal

Public forecast

Using degrees Celsius for public forecast. Weather courtesy of forecast.io.

Closest aviation weather report (METAR) to Rolpa Airport

Report is more than 6 hours old.

Closest report is Gorakhpur Airport, 98.9 nm (183.1 km) SSE. Retrieved 2019/11/05 09:30 UTC (3 months ago):

VEGK 050930Z 30005KT 5000 HZ FEW250 30/17 Q1008 NOSIG

Closest aviation forecast (TAF) to Rolpa Airport

Forecast is more than 12 hours old.

Closest forecast is Gorakhpur Airport, 98.9 nm (183.1 km) SSE. Retrieved 2020/01/21 12:30 UTC (13 hours ago):

TAF VEGK 210930Z 2112/2124 27005KT 3000 BR SCT025 SCT250 BECMG 2114/2116 2000 BR SCT020 BECMG 2118/ 2120 VRB02KT 1000 BR BECMG 2120/2122 0500 FG VV///